sensor_id;sensor_type;location;lat;lon;timestamp;P1;durP1;ratioP1;P2;durP2;ratioP2
11394;SDS011;5753;54.402;10.220;2023-06-26T00:00:00;4.97;;;3.42;;
11394;SDS011;5753;54.402;10.220;2023-06-26T00:02:26;7.05;;;4.10;;
11394;SDS011;5753;54.402;10.220;2023-06-26T00:04:52;3.50;;;3.20;;
11394;SDS011;5753;54.402;10.220;2023-06-26T00:07:19;4.38;;;3.50;;
11394;SDS011;5753;54.402;10.220;2023-06-26T00:09:45;5.07;;;3.88;;
11394;SDS011;5753;54.402;10.220;2023-06-26T00:12:11;3.08;;;2.83;;
11394;SDS011;5753;54.402;10.220;2023-06-26T00:14:37;5.93;;;3.60;;
11394;SDS011;5753;54.402;10.220;2023-06-26T00:17:03;4.93;;;4.45;;
11394;SDS011;5753;54.402;10.220;2023-06-26T00:19:29;4.10;;;3.70;;
11394;SDS011;5753;54.402;10.220;2023-06-26T00:21:55;4.28;;;3.25;;
11394;SDS011;5753;54.402;10.220;2023-06-26T00:24:22;9.98;;;3.45;;
11394;SDS011;5753;54.402;10.220;2023-06-26T00:26:48;5.97;;;4.47;;
11394;SDS011;5753;54.402;10.220;2023-06-26T00:29:14;3.63;;;3.30;;
11394;SDS011;5753;54.402;10.220;2023-06-26T00:31:41;4.70;;;3.13;;
11394;SDS011;5753;54.402;10.220;2023-06-26T00:34:07;4.85;;;4.10;;
11394;SDS011;5753;54.402;10.220;2023-06-26T00:36:33;7.70;;;3.75;;
11394;SDS011;5753;54.402;10.220;2023-06-26T00:38:59;5.63;;;3.65;;
11394;SDS011;5753;54.402;10.220;2023-06-26T00:41:25;4.63;;;4.05;;
11394;SDS011;5753;54.402;10.220;2023-06-26T00:43:51;5.82;;;4.13;;
11394;SDS011;5753;54.402;10.220;2023-06-26T00:46:17;4.88;;;4.47;;
11394;SDS011;5753;54.402;10.220;2023-06-26T00:48:44;5.72;;;3.92;;
11394;SDS011;5753;54.402;10.220;2023-06-26T00:51:13;5.45;;;3.92;;
11394;SDS011;5753;54.402;10.220;2023-06-26T00:53:39;4.68;;;3.20;;
11394;SDS011;5753;54.402;10.220;2023-06-26T00:56:06;5.25;;;4.85;;
11394;SDS011;5753;54.402;10.220;2023-06-26T00:58:34;4.88;;;3.67;;
11394;SDS011;5753;54.402;10.220;2023-06-26T01:01:00;5.78;;;4.45;;
11394;SDS011;5753;54.402;10.220;2023-06-26T01:03:28;4.90;;;4.13;;
11394;SDS011;5753;54.402;10.220;2023-06-26T01:05:54;5.25;;;3.85;;
11394;SDS011;5753;54.402;10.220;2023-06-26T01:08:24;4.82;;;3.35;;
11394;SDS011;5753;54.402;10.220;2023-06-26T01:10:50;5.80;;;5.22;;
11394;SDS011;5753;54.402;10.220;2023-06-26T01:13:16;6.18;;;5.00;;
11394;SDS011;5753;54.402;10.220;2023-06-26T01:15:43;6.47;;;4.28;;
11394;SDS011;5753;54.402;10.220;2023-06-26T01:18:09;5.95;;;5.35;;
11394;SDS011;5753;54.402;10.220;2023-06-26T01:20:36;4.68;;;4.18;;
11394;SDS011;5753;54.402;10.220;2023-06-26T01:28:47;6.20;;;4.07;;
11394;SDS011;5753;54.402;10.220;2023-06-26T01:31:16;5.68;;;4.43;;
11394;SDS011;5753;54.402;10.220;2023-06-26T01:33:43;7.15;;;5.55;;
11394;SDS011;5753;54.402;10.220;2023-06-26T01:36:11;5.85;;;4.43;;
11394;SDS011;5753;54.402;10.220;2023-06-26T01:38:37;7.50;;;5.63;;
11394;SDS011;5753;54.402;10.220;2023-06-26T01:41:04;7.35;;;5.00;;
11394;SDS011;5753;54.402;10.220;2023-06-26T01:46:05;16.98;;;5.97;;
11394;SDS011;5753;54.402;10.220;2023-06-26T01:49:06;11.05;;;5.80;;
11394;SDS011;5753;54.402;10.220;2023-06-26T01:51:58;5.80;;;4.30;;
11394;SDS011;5753;54.402;10.220;2023-06-26T01:57:27;6.45;;;5.70;;
11394;SDS011;5753;54.402;10.220;2023-06-26T01:59:57;10.88;;;6.35;;
11394;SDS011;5753;54.402;10.220;2023-06-26T02:02:24;5.70;;;4.72;;
11394;SDS011;5753;54.402;10.220;2023-06-26T02:04:51;5.57;;;4.28;;
11394;SDS011;5753;54.402;10.220;2023-06-26T02:07:17;6.22;;;5.70;;
11394;SDS011;5753;54.402;10.220;2023-06-26T02:09:43;6.53;;;5.50;;
11394;SDS011;5753;54.402;10.220;2023-06-26T02:12:09;7.18;;;6.00;;
11394;SDS011;5753;54.402;10.220;2023-06-26T02:14:36;8.18;;;7.13;;
11394;SDS011;5753;54.402;10.220;2023-06-26T02:17:02;10.02;;;6.60;;
11394;SDS011;5753;54.402;10.220;2023-06-26T02:19:28;6.95;;;6.25;;
11394;SDS011;5753;54.402;10.220;2023-06-26T02:21:54;9.85;;;5.55;;
11394;SDS011;5753;54.402;10.220;2023-06-26T02:24:20;8.75;;;5.22;;
11394;SDS011;5753;54.402;10.220;2023-06-26T02:26:46;9.20;;;5.68;;
11394;SDS011;5753;54.402;10.220;2023-06-26T02:29:14;7.65;;;6.82;;
11394;SDS011;5753;54.402;10.220;2023-06-26T02:31:40;6.95;;;6.28;;
11394;SDS011;5753;54.402;10.220;2023-06-26T02:34:06;8.75;;;6.30;;
11394;SDS011;5753;54.402;10.220;2023-06-26T02:36:32;12.05;;;6.05;;
11394;SDS011;5753;54.402;10.220;2023-06-26T02:38:58;7.97;;;6.15;;
11394;SDS011;5753;54.402;10.220;2023-06-26T02:41:24;7.07;;;6.47;;
11394;SDS011;5753;54.402;10.220;2023-06-26T02:43:50;6.10;;;5.50;;
11394;SDS011;5753;54.402;10.220;2023-06-26T02:46:16;9.32;;;6.60;;
11394;SDS011;5753;54.402;10.220;2023-06-26T02:48:43;7.93;;;7.13;;
11394;SDS011;5753;54.402;10.220;2023-06-26T02:51:09;6.50;;;5.90;;
11394;SDS011;5753;54.402;10.220;2023-06-26T02:53:35;6.90;;;5.72;;
11394;SDS011;5753;54.402;10.220;2023-06-26T02:56:01;10.00;;;7.05;;
11394;SDS011;5753;54.402;10.220;2023-06-26T02:58:27;7.90;;;7.10;;
11394;SDS011;5753;54.402;10.220;2023-06-26T03:00:53;7.15;;;6.03;;
11394;SDS011;5753;54.402;10.220;2023-06-26T03:03:19;37.90;;;9.02;;
11394;SDS011;5753;54.402;10.220;2023-06-26T03:05:45;8.73;;;7.82;;
11394;SDS011;5753;54.402;10.220;2023-06-26T03:08:11;9.02;;;6.45;;
11394;SDS011;5753;54.402;10.220;2023-06-26T03:10:37;10.30;;;7.22;;
11394;SDS011;5753;54.402;10.220;2023-06-26T03:13:03;7.07;;;6.38;;
11394;SDS011;5753;54.402;10.220;2023-06-26T03:15:29;10.55;;;7.35;;
11394;SDS011;5753;54.402;10.220;2023-06-26T03:17:55;10.65;;;7.78;;
11394;SDS011;5753;54.402;10.220;2023-06-26T03:20:21;12.75;;;7.38;;
11394;SDS011;5753;54.402;10.220;2023-06-26T03:22:47;7.40;;;6.70;;
11394;SDS011;5753;54.402;10.220;2023-06-26T03:25:14;8.40;;;7.03;;
11394;SDS011;5753;54.402;10.220;2023-06-26T03:27:40;6.88;;;6.25;;
11394;SDS011;5753;54.402;10.220;2023-06-26T03:30:06;9.02;;;7.55;;
11394;SDS011;5753;54.402;10.220;2023-06-26T03:32:32;7.78;;;6.60;;
11394;SDS011;5753;54.402;10.220;2023-06-26T03:34:58;9.35;;;7.70;;
11394;SDS011;5753;54.402;10.220;2023-06-26T03:37:28;8.30;;;6.75;;
11394;SDS011;5753;54.402;10.220;2023-06-26T03:39:54;9.35;;;7.13;;
11394;SDS011;5753;54.402;10.220;2023-06-26T03:42:20;7.70;;;6.88;;
11394;SDS011;5753;54.402;10.220;2023-06-26T03:44:46;9.73;;;7.80;;
11394;SDS011;5753;54.402;10.220;2023-06-26T03:47:12;10.13;;;8.00;;
11394;SDS011;5753;54.402;10.220;2023-06-26T03:49:38;9.10;;;7.43;;
11394;SDS011;5753;54.402;10.220;2023-06-26T03:52:04;10.38;;;8.02;;
11394;SDS011;5753;54.402;10.220;2023-06-26T03:54:30;7.93;;;6.95;;
11394;SDS011;5753;54.402;10.220;2023-06-26T03:56:59;9.75;;;7.50;;
11394;SDS011;5753;54.402;10.220;2023-06-26T03:59:25;10.98;;;7.78;;
11394;SDS011;5753;54.402;10.220;2023-06-26T04:01:51;8.15;;;6.88;;
11394;SDS011;5753;54.402;10.220;2023-06-26T04:04:18;7.47;;;6.72;;
11394;SDS011;5753;54.402;10.220;2023-06-26T04:06:44;8.02;;;7.22;;
11394;SDS011;5753;54.402;10.220;2023-06-26T04:09:10;9.00;;;5.85;;
11394;SDS011;5753;54.402;10.220;2023-06-26T04:11:36;7.88;;;7.10;;
11394;SDS011;5753;54.402;10.220;2023-06-26T04:14:02;8.07;;;7.38;;
11394;SDS011;5753;54.402;10.220;2023-06-26T04:16:28;8.00;;;7.30;;
11394;SDS011;5753;54.402;10.220;2023-06-26T04:18:54;7.97;;;7.22;;
11394;SDS011;5753;54.402;10.220;2023-06-26T04:21:21;9.90;;;7.60;;
11394;SDS011;5753;54.402;10.220;2023-06-26T04:23:50;7.75;;;6.95;;
11394;SDS011;5753;54.402;10.220;2023-06-26T04:26:16;7.70;;;6.65;;
11394;SDS011;5753;54.402;10.220;2023-06-26T04:28:42;9.02;;;6.63;;
11394;SDS011;5753;54.402;10.220;2023-06-26T04:31:08;9.25;;;8.27;;
11394;SDS011;5753;54.402;10.220;2023-06-26T04:33:35;9.63;;;7.57;;
11394;SDS011;5753;54.402;10.220;2023-06-26T04:36:02;11.43;;;6.93;;
11394;SDS011;5753;54.402;10.220;2023-06-26T04:38:29;7.93;;;6.75;;
11394;SDS011;5753;54.402;10.220;2023-06-26T04:40:56;8.85;;;8.05;;
11394;SDS011;5753;54.402;10.220;2023-06-26T04:43:22;8.43;;;7.68;;
11394;SDS011;5753;54.402;10.220;2023-06-26T04:45:48;8.63;;;6.07;;
11394;SDS011;5753;54.402;10.220;2023-06-26T04:48:14;8.10;;;7.35;;
11394;SDS011;5753;54.402;10.220;2023-06-26T04:50:40;7.32;;;6.63;;
11394;SDS011;5753;54.402;10.220;2023-06-26T04:53:06;6.80;;;5.93;;
11394;SDS011;5753;54.402;10.220;2023-06-26T04:55:32;12.15;;;7.88;;
11394;SDS011;5753;54.402;10.220;2023-06-26T04:58:00;6.25;;;5.65;;
11394;SDS011;5753;54.402;10.220;2023-06-26T05:00:26;10.35;;;6.32;;
11394;SDS011;5753;54.402;10.220;2023-06-26T05:02:52;6.13;;;5.70;;
11394;SDS011;5753;54.402;10.220;2023-06-26T05:05:25;7.60;;;6.32;;
11394;SDS011;5753;54.402;10.220;2023-06-26T05:07:52;7.97;;;6.13;;
11394;SDS011;5753;54.402;10.220;2023-06-26T05:10:19;7.65;;;6.38;;
11394;SDS011;5753;54.402;10.220;2023-06-26T05:12:45;7.78;;;7.07;;
11394;SDS011;5753;54.402;10.220;2023-06-26T05:15:11;7.30;;;6.60;;
11394;SDS011;5753;54.402;10.220;2023-06-26T05:17:37;7.38;;;5.72;;
11394;SDS011;5753;54.402;10.220;2023-06-26T05:20:03;8.32;;;7.53;;
11394;SDS011;5753;54.402;10.220;2023-06-26T05:22:30;7.05;;;6.35;;
11394;SDS011;5753;54.402;10.220;2023-06-26T05:24:58;7.85;;;6.97;;
11394;SDS011;5753;54.402;10.220;2023-06-26T05:27:26;7.50;;;6.80;;
11394;SDS011;5753;54.402;10.220;2023-06-26T05:29:52;8.18;;;6.28;;
11394;SDS011;5753;54.402;10.220;2023-06-26T05:32:18;8.10;;;6.07;;
11394;SDS011;5753;54.402;10.220;2023-06-26T05:34:46;7.70;;;6.60;;
11394;SDS011;5753;54.402;10.220;2023-06-26T05:37:22;9.05;;;6.43;;
11394;SDS011;5753;54.402;10.220;2023-06-26T05:39:51;8.13;;;6.63;;
11394;SDS011;5753;54.402;10.220;2023-06-26T05:42:17;6.68;;;6.03;;
11394;SDS011;5753;54.402;10.220;2023-06-26T05:44:43;7.28;;;6.57;;
11394;SDS011;5753;54.402;10.220;2023-06-26T05:47:10;6.22;;;5.63;;
11394;SDS011;5753;54.402;10.220;2023-06-26T05:49:36;7.13;;;6.43;;
11394;SDS011;5753;54.402;10.220;2023-06-26T05:52:02;6.63;;;5.95;;
11394;SDS011;5753;54.402;10.220;2023-06-26T05:54:28;6.53;;;5.90;;
11394;SDS011;5753;54.402;10.220;2023-06-26T05:56:56;7.90;;;6.15;;
11394;SDS011;5753;54.402;10.220;2023-06-26T05:59:26;8.05;;;6.47;;
11394;SDS011;5753;54.402;10.220;2023-06-26T06:01:52;8.38;;;6.07;;
11394;SDS011;5753;54.402;10.220;2023-06-26T06:04:19;9.52;;;8.60;;
11394;SDS011;5753;54.402;10.220;2023-06-26T06:06:45;8.38;;;6.63;;
11394;SDS011;5753;54.402;10.220;2023-06-26T06:09:11;8.65;;;7.80;;
11394;SDS011;5753;54.402;10.220;2023-06-26T06:11:37;8.18;;;7.35;;
11394;SDS011;5753;54.402;10.220;2023-06-26T06:14:03;7.53;;;6.82;;
11394;SDS011;5753;54.402;10.220;2023-06-26T06:16:29;9.60;;;5.28;;
11394;SDS011;5753;54.402;10.220;2023-06-26T06:18:55;7.45;;;6.75;;
11394;SDS011;5753;54.402;10.220;2023-06-26T06:21:22;8.07;;;5.97;;
11394;SDS011;5753;54.402;10.220;2023-06-26T06:23:48;6.47;;;5.88;;
11394;SDS011;5753;54.402;10.220;2023-06-26T06:26:14;6.88;;;5.65;;
11394;SDS011;5753;54.402;10.220;2023-06-26T06:28:40;6.88;;;5.85;;
11394;SDS011;5753;54.402;10.220;2023-06-26T06:31:06;8.95;;;6.22;;
11394;SDS011;5753;54.402;10.220;2023-06-26T06:33:32;8.85;;;6.43;;
11394;SDS011;5753;54.402;10.220;2023-06-26T06:35:59;10.70;;;6.30;;
11394;SDS011;5753;54.402;10.220;2023-06-26T06:38:25;13.25;;;8.35;;
11394;SDS011;5753;54.402;10.220;2023-06-26T06:40:51;12.23;;;6.10;;
11394;SDS011;5753;54.402;10.220;2023-06-26T06:43:17;7.90;;;6.57;;
11394;SDS011;5753;54.402;10.220;2023-06-26T06:45:44;6.90;;;6.28;;
11394;SDS011;5753;54.402;10.220;2023-06-26T06:48:10;7.18;;;6.45;;
11394;SDS011;5753;54.402;10.220;2023-06-26T06:50:36;6.45;;;5.80;;
11394;SDS011;5753;54.402;10.220;2023-06-26T06:53:02;7.72;;;6.82;;
11394;SDS011;5753;54.402;10.220;2023-06-26T06:55:28;9.43;;;7.50;;
11394;SDS011;5753;54.402;10.220;2023-06-26T06:57:54;6.30;;;5.63;;
11394;SDS011;5753;54.402;10.220;2023-06-26T07:00:21;6.68;;;6.03;;
11394;SDS011;5753;54.402;10.220;2023-06-26T07:02:47;10.93;;;6.15;;
11394;SDS011;5753;54.402;10.220;2023-06-26T07:05:13;7.03;;;6.32;;
11394;SDS011;5753;54.402;10.220;2023-06-26T07:07:39;7.05;;;5.82;;
11394;SDS011;5753;54.402;10.220;2023-06-26T07:10:09;6.75;;;6.18;;
11394;SDS011;5753;54.402;10.220;2023-06-26T07:12:38;8.57;;;7.60;;
11394;SDS011;5753;54.402;10.220;2023-06-26T07:15:04;6.78;;;6.18;;
11394;SDS011;5753;54.402;10.220;2023-06-26T07:17:31;8.18;;;7.38;;
11394;SDS011;5753;54.402;10.220;2023-06-26T07:19:59;8.40;;;7.53;;
11394;SDS011;5753;54.402;10.220;2023-06-26T07:22:26;10.02;;;6.72;;
11394;SDS011;5753;54.402;10.220;2023-06-26T07:24:52;7.22;;;6.22;;
11394;SDS011;5753;54.402;10.220;2023-06-26T07:27:19;8.88;;;6.90;;
11394;SDS011;5753;54.402;10.220;2023-06-26T07:29:45;6.97;;;6.38;;
11394;SDS011;5753;54.402;10.220;2023-06-26T07:32:12;7.13;;;6.40;;
11394;SDS011;5753;54.402;10.220;2023-06-26T07:34:38;10.75;;;7.00;;
11394;SDS011;5753;54.402;10.220;2023-06-26T07:37:04;6.80;;;5.90;;
11394;SDS011;5753;54.402;10.220;2023-06-26T07:39:30;13.32;;;8.63;;
11394;SDS011;5753;54.402;10.220;2023-06-26T07:41:56;8.65;;;7.15;;
11394;SDS011;5753;54.402;10.220;2023-06-26T07:44:25;7.05;;;6.43;;
11394;SDS011;5753;54.402;10.220;2023-06-26T07:46:52;6.97;;;6.30;;
11394;SDS011;5753;54.402;10.220;2023-06-26T07:49:18;7.90;;;7.15;;
11394;SDS011;5753;54.402;10.220;2023-06-26T07:51:44;7.28;;;6.57;;
11394;SDS011;5753;54.402;10.220;2023-06-26T07:54:10;5.95;;;5.45;;
11394;SDS011;5753;54.402;10.220;2023-06-26T07:59:21;7.00;;;6.30;;
11394;SDS011;5753;54.402;10.220;2023-06-26T08:01:52;7.25;;;6.65;;
11394;SDS011;5753;54.402;10.220;2023-06-26T08:04:20;7.45;;;6.75;;
11394;SDS011;5753;54.402;10.220;2023-06-26T08:06:48;9.60;;;6.55;;
11394;SDS011;5753;54.402;10.220;2023-06-26T08:09:15;6.43;;;5.88;;
11394;SDS011;5753;54.402;10.220;2023-06-26T08:11:42;7.72;;;5.78;;
11394;SDS011;5753;54.402;10.220;2023-06-26T08:14:08;9.35;;;5.93;;
11394;SDS011;5753;54.402;10.220;2023-06-26T08:16:34;7.90;;;7.30;;
11394;SDS011;5753;54.402;10.220;2023-06-26T08:19:00;6.60;;;6.00;;
11394;SDS011;5753;54.402;10.220;2023-06-26T08:21:26;7.60;;;6.85;;
11394;SDS011;5753;54.402;10.220;2023-06-26T08:23:53;6.95;;;5.63;;
11394;SDS011;5753;54.402;10.220;2023-06-26T08:26:19;6.65;;;6.00;;
11394;SDS011;5753;54.402;10.220;2023-06-26T08:28:45;5.45;;;4.95;;
11394;SDS011;5753;54.402;10.220;2023-06-26T08:31:11;6.88;;;6.25;;
11394;SDS011;5753;54.402;10.220;2023-06-26T08:33:37;7.95;;;6.35;;
11394;SDS011;5753;54.402;10.220;2023-06-26T08:36:03;11.50;;;6.85;;
11394;SDS011;5753;54.402;10.220;2023-06-26T08:38:29;9.65;;;6.90;;
11394;SDS011;5753;54.402;10.220;2023-06-26T08:40:55;5.80;;;5.05;;
11394;SDS011;5753;54.402;10.220;2023-06-26T08:43:22;7.72;;;6.05;;
11394;SDS011;5753;54.402;10.220;2023-06-26T08:45:48;6.72;;;6.00;;
11394;SDS011;5753;54.402;10.220;2023-06-26T08:48:17;8.48;;;6.38;;
11394;SDS011;5753;54.402;10.220;2023-06-26T08:50:45;7.63;;;6.82;;
11394;SDS011;5753;54.402;10.220;2023-06-26T08:53:18;8.80;;;6.95;;
11394;SDS011;5753;54.402;10.220;2023-06-26T08:55:57;8.15;;;6.80;;
11394;SDS011;5753;54.402;10.220;2023-06-26T08:58:24;6.22;;;5.72;;
11394;SDS011;5753;54.402;10.220;2023-06-26T09:00:54;6.55;;;5.63;;
11394;SDS011;5753;54.402;10.220;2023-06-26T09:03:21;10.88;;;7.30;;
11394;SDS011;5753;54.402;10.220;2023-06-26T09:05:48;6.72;;;6.18;;
11394;SDS011;5753;54.402;10.220;2023-06-26T09:08:14;6.93;;;5.70;;
11394;SDS011;5753;54.402;10.220;2023-06-26T09:10:40;6.47;;;5.88;;
11394;SDS011;5753;54.402;10.220;2023-06-26T09:13:06;7.95;;;7.20;;
11394;SDS011;5753;54.402;10.220;2023-06-26T09:15:36;6.00;;;5.40;;
11394;SDS011;5753;54.402;10.220;2023-06-26T09:18:04;5.68;;;5.10;;
11394;SDS011;5753;54.402;10.220;2023-06-26T09:20:30;7.18;;;6.28;;
11394;SDS011;5753;54.402;10.220;2023-06-26T09:22:59;8.60;;;7.80;;
11394;SDS011;5753;54.402;10.220;2023-06-26T09:25:27;6.80;;;6.15;;
11394;SDS011;5753;54.402;10.220;2023-06-26T09:27:54;8.43;;;6.25;;
11394;SDS011;5753;54.402;10.220;2023-06-26T09:30:20;10.70;;;6.35;;
11394;SDS011;5753;54.402;10.220;2023-06-26T09:32:47;12.35;;;10.32;;
11394;SDS011;5753;54.402;10.220;2023-06-26T09:35:15;12.90;;;11.65;;
11394;SDS011;5753;54.402;10.220;2023-06-26T09:37:42;12.43;;;11.18;;
11394;SDS011;5753;54.402;10.220;2023-06-26T09:40:08;16.90;;;13.30;;
11394;SDS011;5753;54.402;10.220;2023-06-26T09:42:35;15.13;;;11.18;;
11394;SDS011;5753;54.402;10.220;2023-06-26T09:45:02;18.05;;;13.82;;
11394;SDS011;5753;54.402;10.220;2023-06-26T09:47:30;15.07;;;13.60;;
11394;SDS011;5753;54.402;10.220;2023-06-26T09:49:59;14.02;;;12.63;;
11394;SDS011;5753;54.402;10.220;2023-06-26T09:52:27;14.38;;;13.07;;
11394;SDS011;5753;54.402;10.220;2023-06-26T09:55:07;13.32;;;9.68;;
11394;SDS011;5753;54.402;10.220;2023-06-26T09:57:34;9.02;;;7.30;;
11394;SDS011;5753;54.402;10.220;2023-06-26T10:00:04;9.93;;;7.10;;
11394;SDS011;5753;54.402;10.220;2023-06-26T10:02:32;9.60;;;7.18;;
11394;SDS011;5753;54.402;10.220;2023-06-26T10:04:59;8.80;;;6.45;;
11394;SDS011;5753;54.402;10.220;2023-06-26T10:07:25;6.70;;;5.63;;
11394;SDS011;5753;54.402;10.220;2023-06-26T10:09:52;7.45;;;6.18;;
11394;SDS011;5753;54.402;10.220;2023-06-26T10:12:26;6.15;;;5.00;;
11394;SDS011;5753;54.402;10.220;2023-06-26T10:14:55;10.57;;;6.47;;
11394;SDS011;5753;54.402;10.220;2023-06-26T10:17:22;6.55;;;5.75;;
11394;SDS011;5753;54.402;10.220;2023-06-26T10:19:53;12.20;;;7.45;;
11394;SDS011;5753;54.402;10.220;2023-06-26T10:22:21;6.68;;;6.05;;
11394;SDS011;5753;54.402;10.220;2023-06-26T10:24:50;7.53;;;5.78;;
11394;SDS011;5753;54.402;10.220;2023-06-26T10:27:19;7.25;;;4.93;;
11394;SDS011;5753;54.402;10.220;2023-06-26T10:29:56;6.75;;;5.82;;
11394;SDS011;5753;54.402;10.220;2023-06-26T10:32:27;6.63;;;5.72;;
11394;SDS011;5753;54.402;10.220;2023-06-26T10:34:54;9.75;;;7.28;;
11394;SDS011;5753;54.402;10.220;2023-06-26T10:37:31;7.47;;;5.68;;
11394;SDS011;5753;54.402;10.220;2023-06-26T10:40:13;10.95;;;6.25;;
11394;SDS011;5753;54.402;10.220;2023-06-26T10:42:46;9.38;;;7.28;;
11394;SDS011;5753;54.402;10.220;2023-06-26T10:45:16;9.00;;;6.38;;
11394;SDS011;5753;54.402;10.220;2023-06-26T10:47:43;6.15;;;5.55;;
11394;SDS011;5753;54.402;10.220;2023-06-26T10:53:07;11.60;;;6.50;;
11394;SDS011;5753;54.402;10.220;2023-06-26T10:55:43;6.80;;;6.10;;
11394;SDS011;5753;54.402;10.220;2023-06-26T10:58:32;14.23;;;7.75;;
11394;SDS011;5753;54.402;10.220;2023-06-26T11:03:37;11.77;;;7.80;;
11394;SDS011;5753;54.402;10.220;2023-06-26T11:06:11;8.77;;;6.32;;
11394;SDS011;5753;54.402;10.220;2023-06-26T11:08:51;10.70;;;6.20;;
11394;SDS011;5753;54.402;10.220;2023-06-26T11:11:18;5.93;;;5.32;;
11394;SDS011;5753;54.402;10.220;2023-06-26T11:13:46;9.85;;;7.32;;
11394;SDS011;5753;54.402;10.220;2023-06-26T11:16:13;12.25;;;7.25;;
11394;SDS011;5753;54.402;10.220;2023-06-26T11:18:40;10.25;;;5.88;;
11394;SDS011;5753;54.402;10.220;2023-06-26T11:21:13;7.70;;;6.30;;
11394;SDS011;5753;54.402;10.220;2023-06-26T11:23:40;10.43;;;5.78;;
11394;SDS011;5753;54.402;10.220;2023-06-26T11:26:18;7.28;;;5.60;;
11394;SDS011;5753;54.402;10.220;2023-06-26T11:31:24;8.98;;;7.35;;
11394;SDS011;5753;54.402;10.220;2023-06-26T11:33:51;7.45;;;5.93;;
11394;SDS011;5753;54.402;10.220;2023-06-26T11:36:18;9.68;;;6.53;;
11394;SDS011;5753;54.402;10.220;2023-06-26T11:38:44;8.50;;;6.75;;
11394;SDS011;5753;54.402;10.220;2023-06-26T11:41:10;10.80;;;6.82;;
11394;SDS011;5753;54.402;10.220;2023-06-26T11:43:41;7.13;;;6.05;;
11394;SDS011;5753;54.402;10.220;2023-06-26T11:46:07;13.80;;;4.85;;
11394;SDS011;5753;54.402;10.220;2023-06-26T11:48:34;5.70;;;5.10;;
11394;SDS011;5753;54.402;10.220;2023-06-26T11:51:00;6.47;;;5.85;;
11394;SDS011;5753;54.402;10.220;2023-06-26T11:53:29;9.10;;;5.80;;
11394;SDS011;5753;54.402;10.220;2023-06-26T11:55:55;8.70;;;5.50;;
11394;SDS011;5753;54.402;10.220;2023-06-26T11:58:22;7.25;;;4.70;;
11394;SDS011;5753;54.402;10.220;2023-06-26T12:00:49;6.30;;;5.13;;
11394;SDS011;5753;54.402;10.220;2023-06-26T12:03:15;6.25;;;4.70;;
11394;SDS011;5753;54.402;10.220;2023-06-26T12:05:41;8.80;;;4.75;;
11394;SDS011;5753;54.402;10.220;2023-06-26T12:08:10;6.68;;;4.43;;
11394;SDS011;5753;54.402;10.220;2023-06-26T12:10:36;8.63;;;6.20;;
11394;SDS011;5753;54.402;10.220;2023-06-26T12:13:03;8.70;;;4.95;;
11394;SDS011;5753;54.402;10.220;2023-06-26T12:15:29;7.00;;;2.88;;
11394;SDS011;5753;54.402;10.220;2023-06-26T12:17:55;6.78;;;2.80;;
11394;SDS011;5753;54.402;10.220;2023-06-26T12:20:21;6.85;;;3.33;;
11394;SDS011;5753;54.402;10.220;2023-06-26T12:22:49;3.55;;;2.28;;
11394;SDS011;5753;54.402;10.220;2023-06-26T12:25:15;3.20;;;1.63;;
11394;SDS011;5753;54.402;10.220;2023-06-26T12:27:47;4.10;;;1.67;;
11394;SDS011;5753;54.402;10.220;2023-06-26T12:30:14;4.72;;;1.67;;
11394;SDS011;5753;54.402;10.220;2023-06-26T12:32:44;2.88;;;2.05;;
11394;SDS011;5753;54.402;10.220;2023-06-26T12:35:11;3.20;;;1.85;;
11394;SDS011;5753;54.402;10.220;2023-06-26T12:37:37;4.28;;;1.92;;
11394;SDS011;5753;54.402;10.220;2023-06-26T12:40:17;3.92;;;2.03;;
11394;SDS011;5753;54.402;10.220;2023-06-26T12:42:46;4.90;;;2.58;;
11394;SDS011;5753;54.402;10.220;2023-06-26T12:45:13;3.60;;;2.40;;
11394;SDS011;5753;54.402;10.220;2023-06-26T12:47:40;6.38;;;2.17;;
11394;SDS011;5753;54.402;10.220;2023-06-26T12:50:07;3.95;;;1.85;;
11394;SDS011;5753;54.402;10.220;2023-06-26T12:52:33;10.02;;;2.33;;
11394;SDS011;5753;54.402;10.220;2023-06-26T12:54:59;7.15;;;1.67;;
11394;SDS011;5753;54.402;10.220;2023-06-26T12:57:25;9.02;;;2.30;;
11394;SDS011;5753;54.402;10.220;2023-06-26T12:59:51;5.95;;;2.42;;
11394;SDS011;5753;54.402;10.220;2023-06-26T13:02:18;3.15;;;2.22;;
11394;SDS011;5753;54.402;10.220;2023-06-26T13:04:44;4.88;;;2.60;;
11394;SDS011;5753;54.402;10.220;2023-06-26T13:07:10;3.22;;;2.58;;
11394;SDS011;5753;54.402;10.220;2023-06-26T13:09:37;4.90;;;2.42;;
11394;SDS011;5753;54.402;10.220;2023-06-26T13:12:04;4.40;;;2.47;;
11394;SDS011;5753;54.402;10.220;2023-06-26T13:14:31;4.05;;;2.05;;
11394;SDS011;5753;54.402;10.220;2023-06-26T13:16:57;5.32;;;1.90;;
11394;SDS011;5753;54.402;10.220;2023-06-26T13:19:25;2.72;;;1.70;;
11394;SDS011;5753;54.402;10.220;2023-06-26T13:21:51;3.97;;;1.98;;
11394;SDS011;5753;54.402;10.220;2023-06-26T13:24:18;7.07;;;3.03;;
11394;SDS011;5753;54.402;10.220;2023-06-26T13:26:44;3.63;;;1.60;;
11394;SDS011;5753;54.402;10.220;2023-06-26T13:29:10;6.13;;;2.67;;
11394;SDS011;5753;54.402;10.220;2023-06-26T13:31:36;14.48;;;2.55;;
11394;SDS011;5753;54.402;10.220;2023-06-26T13:34:03;4.68;;;1.58;;
11394;SDS011;5753;54.402;10.220;2023-06-26T13:36:30;5.97;;;2.30;;
11394;SDS011;5753;54.402;10.220;2023-06-26T13:38:58;2.30;;;1.90;;
11394;SDS011;5753;54.402;10.220;2023-06-26T13:41:25;10.10;;;1.40;;
11394;SDS011;5753;54.402;10.220;2023-06-26T13:43:51;4.55;;;2.08;;
11394;SDS011;5753;54.402;10.220;2023-06-26T13:46:17;6.50;;;3.45;;
11394;SDS011;5753;54.402;10.220;2023-06-26T13:48:44;1.13;;;1.10;;
11394;SDS011;5753;54.402;10.220;2023-06-26T13:51:10;4.97;;;1.65;;
11394;SDS011;5753;54.402;10.220;2023-06-26T13:53:37;1.88;;;1.55;;
11394;SDS011;5753;54.402;10.220;2023-06-26T13:56:03;6.88;;;1.50;;
11394;SDS011;5753;54.402;10.220;2023-06-26T13:58:29;4.97;;;1.42;;
11394;SDS011;5753;54.402;10.220;2023-06-26T14:00:57;3.85;;;1.35;;
11394;SDS011;5753;54.402;10.220;2023-06-26T14:03:26;3.65;;;2.33;;
11394;SDS011;5753;54.402;10.220;2023-06-26T14:05:55;1.92;;;1.38;;
11394;SDS011;5753;54.402;10.220;2023-06-26T14:08:21;3.63;;;2.25;;
11394;SDS011;5753;54.402;10.220;2023-06-26T14:10:47;3.58;;;1.75;;
11394;SDS011;5753;54.402;10.220;2023-06-26T14:13:13;4.78;;;1.75;;
11394;SDS011;5753;54.402;10.220;2023-06-26T14:15:40;5.95;;;2.75;;
11394;SDS011;5753;54.402;10.220;2023-06-26T14:18:07;6.88;;;1.88;;
11394;SDS011;5753;54.402;10.220;2023-06-26T14:20:33;7.70;;;1.70;;
11394;SDS011;5753;54.402;10.220;2023-06-26T14:23:00;4.05;;;1.80;;
11394;SDS011;5753;54.402;10.220;2023-06-26T14:25:27;2.30;;;1.23;;
11394;SDS011;5753;54.402;10.220;2023-06-26T14:27:54;4.28;;;2.33;;
11394;SDS011;5753;54.402;10.220;2023-06-26T14:30:21;2.58;;;1.40;;
11394;SDS011;5753;54.402;10.220;2023-06-26T14:32:47;1.67;;;1.42;;
11394;SDS011;5753;54.402;10.220;2023-06-26T14:35:13;5.32;;;2.05;;
11394;SDS011;5753;54.402;10.220;2023-06-26T14:37:39;3.60;;;1.73;;
11394;SDS011;5753;54.402;10.220;2023-06-26T14:40:06;2.08;;;1.20;;
11394;SDS011;5753;54.402;10.220;2023-06-26T14:42:33;2.58;;;1.30;;
11394;SDS011;5753;54.402;10.220;2023-06-26T14:44:59;5.05;;;1.75;;
11394;SDS011;5753;54.402;10.220;2023-06-26T14:47:25;1.70;;;1.17;;
11394;SDS011;5753;54.402;10.220;2023-06-26T14:49:52;3.75;;;1.40;;
11394;SDS011;5753;54.402;10.220;2023-06-26T14:52:18;5.18;;;2.47;;
11394;SDS011;5753;54.402;10.220;2023-06-26T14:54:44;4.30;;;1.48;;
11394;SDS011;5753;54.402;10.220;2023-06-26T14:57:10;2.78;;;1.60;;
11394;SDS011;5753;54.402;10.220;2023-06-26T14:59:36;3.45;;;1.50;;
11394;SDS011;5753;54.402;10.220;2023-06-26T15:02:02;2.58;;;1.65;;
11394;SDS011;5753;54.402;10.220;2023-06-26T15:04:28;4.55;;;1.98;;
11394;SDS011;5753;54.402;10.220;2023-06-26T15:06:56;2.72;;;1.60;;